Country
Station

 

Weather  for  Owatonna Automatic Weather Observing/Reporting System  -  United States    United States

  
4 °C (39 °F)
    
 
 

Current METAR for Owatonna Automatic Weather Observing/Reporting System is :

KOWA 161254Z AUTO 30009KT 10SM BKN015 OVC023 04/02 A3010 RMK AO2

 

This is a report for Owatonna Automatic Weather Observing/Reporting System - United States.
 
The report was made 13 minutes ago, at 12:54 UTC .
The wind was blowing at a speed of 4.6 meters per second (10.4 miles per hour) from west/northwest (300°).
 
The temperature was 4 °C (39 °F), with a dew-point at 2 °C (36 °F).
The temperature felt like -0 °C (32 °F).
 
The atmospheric pressure was 1019 hPa (30.10 inHg).
The relative humidity was 86.8%.
 
There were broken clouds at a height of 457 meters (1500 feet). The sky was overcast from a height of 701 meter (2300 feet)
 
The overall visibility was 16.1 kilometers (10.0 miles).
 

 
 
 
 

Country :   A   B   C   D   E   F   G   H   I   J   K   L   M   N   O   P   Q   R   S   T   U   V   W   Y   Z

 

Site Info  |  Disclaimer  |  Credits  |  Privacy
Contact us  |  Add to favorites
© 2013-2019 METARs - All rights reserved